createdAt,value
2022-12-19T00:01:36.229Z,28.16
2022-12-19T00:04:08.340Z,28.19
2022-12-19T00:06:35.887Z,28.30
2022-12-19T00:09:02.451Z,28.21
2022-12-19T00:11:29.283Z,28.24
2022-12-19T00:13:55.998Z,28.25
2022-12-19T00:16:24.030Z,28.06
2022-12-19T00:18:51.153Z,27.96
2022-12-19T00:21:23.401Z,27.99
2022-12-19T00:23:50.044Z,28.11
2022-12-19T00:26:20.645Z,28.15
2022-12-19T00:28:48.535Z,28.16
2022-12-19T00:31:15.914Z,28.21
2022-12-19T00:33:43.280Z,28.27
2022-12-19T00:36:12.016Z,28.26
2022-12-19T00:38:38.627Z,28.25
2022-12-19T00:41:09.177Z,28.18
2022-12-19T00:43:35.770Z,28.29
2022-12-19T00:46:06.204Z,28.18
2022-12-19T00:48:32.814Z,28.02
2022-12-19T00:51:01.036Z,28.02
2022-12-19T00:53:27.694Z,28.06
2022-12-19T00:55:54.367Z,28.14
2022-12-19T00:58:20.909Z,28.16
2022-12-19T01:00:47.477Z,28.22
2022-12-19T01:03:14.286Z,28.25
2022-12-19T01:05:42.120Z,28.16
2022-12-19T01:08:09.277Z,28.22
2022-12-19T01:10:35.919Z,28.23
2022-12-19T01:13:02.529Z,28.33
2022-12-19T01:15:29.093Z,28.30
2022-12-19T01:17:55.760Z,28.38
2022-12-19T01:20:29.025Z,28.41
2022-12-19T01:22:56.807Z,28.33
2022-12-19T01:25:25.411Z,28.36
2022-12-19T01:27:54.648Z,28.44
2022-12-19T01:30:21.303Z,28.40
2022-12-19T01:32:47.868Z,28.18
2022-12-19T01:35:21.226Z,28.12
2022-12-19T01:37:48.065Z,28.08
2022-12-19T01:40:14.671Z,28.17
2022-12-19T01:42:41.208Z,28.20
2022-12-19T01:45:07.649Z,28.24
2022-12-19T01:47:53.477Z,28.22
2022-12-19T01:50:39.132Z,28.28
2022-12-19T01:53:09.390Z,28.32
2022-12-19T01:55:37.267Z,28.38
2022-12-19T01:58:04.148Z,28.39
2022-12-19T02:00:31.165Z,28.40
2022-12-19T02:03:01.878Z,28.42
2022-12-19T02:05:28.757Z,28.43
2022-12-19T02:07:55.315Z,28.45
2022-12-19T02:10:21.894Z,28.43
2022-12-19T02:12:48.471Z,28.44
2022-12-19T02:15:15.116Z,28.47
2022-12-19T02:18:10.151Z,28.48
2022-12-19T02:20:55.725Z,28.49
2022-12-19T02:23:50.031Z,28.50
2022-12-19T02:26:50.765Z,28.47
2022-12-19T02:30:05.127Z,28.51
2022-12-19T02:32:53.483Z,28.52
2022-12-19T02:35:28.755Z,28.24
2022-12-19T02:38:31.166Z,28.14
2022-12-19T02:41:23.163Z,28.16
2022-12-19T02:43:53.827Z,28.27
2022-12-19T02:46:25.890Z,28.29
2022-12-19T02:48:52.490Z,28.35
2022-12-19T02:51:19.094Z,28.36
2022-12-19T02:53:45.696Z,28.36
2022-12-19T02:56:12.125Z,28.36
2022-12-19T02:58:46.723Z,28.35
2022-12-19T03:01:50.481Z,28.17
2022-12-19T03:04:36.016Z,27.82
2022-12-19T03:07:04.285Z,27.53
2022-12-19T03:09:40.079Z,27.24
2022-12-19T03:12:17.031Z,26.97
2022-12-19T03:14:44.023Z,26.63
2022-12-19T03:17:10.624Z,26.33
2022-12-19T03:19:38.237Z,26.03
2022-12-19T03:22:04.819Z,25.78
2022-12-19T03:24:31.404Z,25.52
2022-12-19T03:27:00.233Z,25.32
2022-12-19T03:29:36.329Z,25.04
2022-12-19T03:32:05.723Z,24.79
2022-12-19T03:34:39.653Z,24.59
2022-12-19T03:37:07.604Z,24.33
2022-12-19T03:39:37.861Z,24.10
2022-12-19T03:42:23.239Z,23.89
2022-12-19T03:44:50.162Z,23.71
2022-12-19T03:47:24.056Z,23.44
2022-12-19T03:49:51.396Z,23.24
2022-12-19T03:52:42.086Z,23.07
2022-12-19T03:55:32.567Z,22.88
2022-12-19T03:58:05.105Z,22.85
2022-12-19T04:00:31.699Z,23.08
2022-12-19T04:02:58.373Z,23.32
2022-12-19T04:05:26.332Z,23.81
2022-12-19T04:07:55.216Z,24.82
2022-12-19T04:10:22.872Z,26.05
2022-12-19T04:12:52.657Z,27.45
2022-12-19T04:15:20.804Z,28.63
2022-12-19T04:18:05.563Z,29.95
2022-12-19T04:20:32.232Z,31.27
2022-12-19T04:23:08.727Z,32.22
2022-12-19T04:25:37.108Z,32.59
2022-12-19T04:28:09.654Z,32.47
2022-12-19T04:30:37.095Z,32.14
2022-12-19T04:33:04.193Z,31.93
2022-12-19T04:35:30.790Z,31.92
2022-12-19T04:37:57.397Z,32.07
2022-12-19T04:40:23.978Z,32.72
2022-12-19T04:42:50.640Z,33.30
2022-12-19T04:45:17.278Z,33.70
2022-12-19T04:47:43.936Z,33.51
2022-12-19T04:50:10.862Z,33.30
2022-12-19T04:52:37.521Z,32.99
2022-12-19T04:55:04.234Z,32.84
2022-12-19T04:57:31.376Z,32.52
2022-12-19T04:59:58.259Z,32.55
2022-12-19T05:02:25.738Z,32.85
2022-12-19T05:04:52.460Z,33.36
2022-12-19T05:07:20.386Z,33.87
2022-12-19T05:09:47.012Z,34.21
2022-12-19T05:12:13.605Z,34.29
2022-12-19T05:14:41.105Z,34.18
2022-12-19T05:17:07.994Z,34.04
2022-12-19T05:19:34.580Z,33.81
2022-12-19T05:22:01.137Z,33.52
2022-12-19T05:24:27.967Z,33.33
2022-12-19T05:26:54.551Z,33.18
2022-12-19T05:29:21.237Z,33.00
2022-12-19T05:31:47.810Z,33.03
2022-12-19T05:34:14.449Z,32.94
2022-12-19T05:36:41.068Z,32.87
2022-12-19T05:39:07.727Z,32.85
2022-12-19T05:41:34.280Z,32.76
2022-12-19T05:44:00.895Z,32.72
2022-12-19T05:46:27.526Z,32.79
2022-12-19T05:48:54.188Z,32.84
2022-12-19T05:51:21.279Z,32.93
2022-12-19T05:53:47.951Z,32.98
2022-12-19T05:56:19.525Z,32.98
2022-12-19T05:58:46.276Z,32.96
2022-12-19T06:01:14.924Z,33.02
2022-12-19T06:03:41.817Z,33.15
2022-12-19T06:06:11.005Z,33.20
2022-12-19T06:08:37.696Z,33.27
2022-12-19T06:11:04.891Z,33.22
2022-12-19T06:13:31.682Z,33.19
2022-12-19T06:16:05.721Z,33.28
2022-12-19T06:18:32.443Z,33.34
2022-12-19T06:21:03.938Z,33.34
2022-12-19T06:23:31.590Z,33.36
2022-12-19T06:25:58.679Z,33.31
2022-12-19T06:28:26.030Z,33.33
2022-12-19T06:30:52.694Z,33.39
2022-12-19T06:33:19.283Z,33.44
2022-12-19T06:35:45.932Z,33.43
2022-12-19T06:38:15.294Z,33.50
2022-12-19T06:41:02.005Z,33.46
2022-12-19T06:43:28.676Z,33.47
2022-12-19T06:45:56.816Z,33.46
2022-12-19T06:48:23.461Z,33.43
2022-12-19T06:50:50.065Z,33.46
2022-12-19T06:53:19.854Z,33.37
2022-12-19T06:55:46.448Z,33.25
2022-12-19T06:58:13.007Z,32.93
2022-12-19T07:00:39.612Z,32.55
2022-12-19T07:03:07.041Z,32.03
2022-12-19T07:05:33.732Z,31.39
2022-12-19T07:08:00.315Z,30.78
2022-12-19T07:10:27.023Z,30.26
2022-12-19T07:12:53.658Z,29.84
2022-12-19T07:15:20.249Z,29.92
2022-12-19T07:17:46.846Z,30.08
2022-12-19T07:20:14.815Z,29.42
2022-12-19T07:22:41.377Z,29.07
2022-12-19T07:25:08.429Z,29.18
2022-12-19T07:27:36.298Z,29.36
2022-12-19T07:30:04.113Z,29.38
2022-12-19T07:32:30.683Z,29.79
2022-12-19T07:34:57.239Z,30.47
2022-12-19T07:37:23.828Z,31.40
2022-12-19T07:39:50.424Z,32.11
2022-12-19T07:42:17.023Z,32.64
2022-12-19T07:44:43.626Z,33.24
2022-12-19T07:47:10.246Z,33.23
2022-12-19T07:49:37.098Z,32.97
2022-12-19T07:52:03.924Z,32.99
2022-12-19T07:54:30.509Z,32.81
2022-12-19T07:56:57.410Z,32.92
2022-12-19T07:59:29.607Z,33.04
2022-12-19T08:01:57.295Z,33.33
2022-12-19T08:04:24.415Z,33.86
2022-12-19T08:06:50.995Z,33.76
2022-12-19T08:09:17.573Z,33.55
2022-12-19T08:11:44.175Z,33.39
2022-12-19T08:14:10.847Z,33.11
2022-12-19T08:17:11.136Z,32.89
2022-12-19T08:19:27.419Z,32.98
2022-12-19T08:21:54.609Z,33.08
2022-12-19T08:24:21.234Z,33.24
2022-12-19T08:26:48.003Z,33.65
2022-12-19T08:29:14.638Z,34.00
2022-12-19T08:31:41.396Z,34.10
2022-12-19T08:34:08.075Z,33.91
2022-12-19T08:36:34.683Z,33.74
2022-12-19T08:39:01.278Z,33.67
2022-12-19T08:41:27.858Z,33.50
2022-12-19T08:43:55.475Z,33.33
2022-12-19T08:46:22.185Z,33.13
2022-12-19T08:48:48.976Z,33.05
2022-12-19T08:51:15.857Z,33.18
2022-12-19T08:53:43.222Z,33.08
2022-12-19T08:56:14.841Z,33.13
2022-12-19T08:58:41.469Z,32.92
2022-12-19T09:01:11.160Z,32.97
2022-12-19T09:04:22.535Z,33.10
2022-12-19T09:06:27.670Z,33.00
2022-12-19T09:08:54.742Z,33.08
2022-12-19T09:11:27.161Z,33.09
2022-12-19T09:13:59.424Z,33.16
2022-12-19T09:16:29.504Z,33.23
2022-12-19T09:18:59.270Z,33.25
2022-12-19T09:21:27.467Z,33.25
2022-12-19T09:23:58.149Z,33.30
2022-12-19T09:26:27.603Z,33.25
2022-12-19T09:29:00.866Z,32.57
2022-12-19T09:31:28.953Z,32.76
2022-12-19T09:33:55.587Z,33.11
2022-12-19T09:36:24.418Z,33.25
2022-12-19T09:38:53.117Z,33.61
2022-12-19T09:41:38.262Z,33.94
2022-12-19T09:44:23.102Z,34.17
2022-12-19T09:46:57.298Z,34.11
2022-12-19T09:49:25.591Z,34.00
2022-12-19T09:52:29.752Z,34.08
2022-12-19T09:55:05.586Z,34.01
2022-12-19T09:57:52.234Z,34.06
2022-12-19T10:00:20.232Z,34.22
2022-12-19T10:02:50.738Z,34.29
2022-12-19T10:06:06.722Z,34.24
2022-12-19T10:09:20.170Z,34.26
2022-12-19T10:12:38.647Z,34.36
2022-12-19T10:15:02.398Z,34.32
2022-12-19T10:18:06.269Z,34.29
2022-12-19T10:20:38.574Z,34.25
2022-12-19T10:23:42.680Z,34.27
2022-12-19T10:26:24.642Z,34.18
2022-12-19T10:29:18.286Z,33.95
2022-12-19T10:31:55.367Z,33.88
2022-12-19T10:34:30.151Z,33.95
2022-12-19T10:37:25.793Z,33.95
2022-12-19T10:40:05.857Z,33.80
2022-12-19T10:43:10.343Z,33.59
2022-12-19T10:45:59.411Z,33.21
2022-12-19T10:48:31.288Z,32.73
2022-12-19T10:50:58.315Z,32.05
2022-12-19T10:53:32.153Z,31.35
2022-12-19T10:56:02.970Z,31.28
2022-12-19T10:58:36.320Z,31.02
2022-12-19T11:01:25.291Z,30.73
2022-12-19T11:03:53.405Z,30.46
2022-12-19T11:06:35.272Z,30.40
2022-12-19T11:09:23.438Z,30.35
2022-12-19T11:14:44.078Z,30.59
2022-12-19T11:22:28.574Z,31.25
2022-12-19T11:22:47.991Z,31.27
2022-12-19T11:29:47.028Z,30.88
2022-12-19T11:29:55.167Z,32.45
2022-12-19T11:30:09.324Z,32.21
2022-12-19T11:32:41.974Z,32.46
2022-12-19T11:35:36.525Z,32.61
2022-12-19T11:38:05.919Z,32.93
2022-12-19T11:40:53.238Z,33.34
2022-12-19T11:43:44.544Z,33.55
2022-12-19T11:46:21.789Z,33.53
2022-12-19T11:49:11.104Z,33.33
2022-12-19T11:51:55.519Z,33.21
2022-12-19T11:54:23.979Z,33.22
2022-12-19T11:56:50.795Z,33.00
2022-12-19T11:59:37.306Z,33.00
2022-12-19T12:02:34.568Z,32.82
2022-12-19T12:05:12.200Z,32.75
2022-12-19T12:09:02.796Z,32.78
2022-12-19T12:13:19.950Z,32.92
2022-12-19T12:21:31.250Z,33.02
2022-12-19T12:30:28.450Z,32.97
2022-12-19T12:30:59.139Z,33.00
2022-12-19T12:31:26.378Z,33.18
2022-12-19T12:31:51.728Z,33.17
2022-12-19T12:35:16.248Z,33.12
2022-12-19T12:35:38.340Z,33.10
2022-12-19T12:38:33.797Z,33.17
2022-12-19T12:41:17.600Z,33.06
2022-12-19T12:44:07.903Z,33.15
2022-12-19T12:46:37.507Z,33.16
2022-12-19T12:49:05.675Z,32.99
2022-12-19T12:51:33.249Z,32.94
2022-12-19T12:54:07.946Z,32.94
2022-12-19T12:56:37.804Z,32.96
2022-12-19T12:59:06.060Z,32.94
2022-12-19T13:01:37.816Z,32.98
2022-12-19T13:04:20.269Z,33.04
2022-12-19T13:06:50.232Z,32.99
2022-12-19T13:09:16.765Z,33.06
2022-12-19T13:12:46.738Z,32.97
2022-12-19T13:15:37.226Z,32.88
2022-12-19T13:18:14.383Z,32.81
2022-12-19T13:20:47.694Z,32.83
2022-12-19T13:23:26.334Z,32.89
2022-12-19T13:25:53.905Z,32.85
2022-12-19T13:28:23.624Z,33.01
2022-12-19T13:31:20.453Z,33.02
2022-12-19T13:33:55.765Z,33.08
2022-12-19T13:40:01.898Z,33.08
2022-12-19T13:40:09.184Z,33.03
2022-12-19T13:43:10.831Z,32.99
2022-12-19T13:45:38.832Z,32.92
2022-12-19T13:48:12.949Z,33.07
2022-12-19T13:50:40.250Z,33.11
2022-12-19T13:53:15.690Z,33.10
2022-12-19T13:55:42.202Z,33.04
2022-12-19T13:58:20.792Z,33.17
2022-12-19T14:00:56.614Z,33.03
2022-12-19T14:03:32.922Z,33.05
2022-12-19T14:06:17.204Z,33.02
2022-12-19T14:08:45.577Z,32.93
2022-12-19T14:11:44.202Z,32.98
2022-12-19T14:14:25.736Z,32.94
2022-12-19T14:16:54.734Z,32.73
2022-12-19T14:19:23.194Z,32.60
2022-12-19T14:22:11.901Z,32.36
2022-12-19T14:24:36.525Z,32.18
2022-12-19T14:28:22.084Z,31.78
2022-12-19T14:30:28.681Z,31.51
2022-12-19T14:33:44.839Z,31.09
2022-12-19T14:36:06.823Z,30.73
2022-12-19T14:39:19.796Z,29.94
2022-12-19T14:41:09.162Z,29.16
2022-12-19T14:50:16.336Z,28.70
2022-12-19T14:53:34.339Z,28.50
2022-12-19T14:54:18.499Z,28.77
2022-12-19T14:54:55.366Z,30.11
2022-12-19T14:56:03.861Z,31.85
2022-12-19T14:58:52.657Z,32.83
2022-12-19T15:01:09.886Z,32.62
2022-12-19T15:03:42.884Z,32.22
2022-12-19T15:06:48.355Z,31.96
2022-12-19T15:11:00.652Z,31.77
2022-12-19T15:13:47.404Z,31.95
2022-12-19T15:15:25.076Z,32.60
2022-12-19T15:17:53.892Z,33.36
2022-12-19T15:20:20.559Z,33.16
2022-12-19T15:22:47.310Z,32.80
2022-12-19T15:25:36.116Z,32.42
2022-12-19T15:28:02.128Z,32.18
2022-12-19T15:30:28.926Z,31.92
2022-12-19T15:32:55.499Z,31.72
2022-12-19T15:35:22.151Z,31.59
2022-12-19T15:37:48.787Z,31.62
2022-12-19T15:40:16.824Z,31.54
2022-12-19T15:42:44.390Z,31.49
2022-12-19T15:45:19.195Z,31.51
2022-12-19T15:47:45.795Z,31.44
2022-12-19T15:50:23.654Z,31.39
2022-12-19T15:52:57.956Z,31.33
2022-12-19T15:55:26.898Z,31.54
2022-12-19T15:58:00.240Z,31.97
2022-12-19T16:00:33.012Z,32.55
2022-12-19T16:05:46.841Z,33.38
2022-12-19T16:08:15.448Z,33.56
2022-12-19T16:10:42.200Z,33.66
2022-12-19T16:13:23.417Z,33.71
2022-12-19T16:15:50.232Z,33.58
2022-12-19T16:18:17.229Z,33.64
2022-12-19T16:20:44.083Z,33.44
2022-12-19T16:23:11.075Z,33.43
2022-12-19T16:25:47.453Z,33.35
2022-12-19T16:28:27.178Z,33.45
2022-12-19T16:30:55.258Z,33.39
2022-12-19T16:33:23.825Z,33.41
2022-12-19T16:36:07.217Z,33.40
2022-12-19T16:38:34.467Z,33.31
2022-12-19T16:41:01.767Z,33.55
2022-12-19T16:43:29.377Z,33.58
2022-12-19T16:46:00.829Z,33.47
2022-12-19T16:48:29.808Z,33.41
2022-12-19T16:50:57.409Z,33.50
2022-12-19T16:53:24.012Z,33.52
2022-12-19T16:55:50.618Z,33.63
2022-12-19T16:58:21.752Z,33.57
2022-12-19T17:00:48.964Z,33.67
2022-12-19T17:03:18.632Z,33.66
2022-12-19T17:05:45.363Z,33.60
2022-12-19T17:08:12.858Z,33.72
2022-12-19T17:10:40.466Z,33.78
2022-12-19T17:13:07.037Z,33.84
2022-12-19T17:15:36.585Z,33.84
2022-12-19T17:18:04.611Z,33.83
2022-12-19T17:20:35.455Z,33.89
2022-12-19T17:23:04.138Z,33.97
2022-12-19T17:25:31.906Z,33.92
2022-12-19T17:27:58.613Z,33.98
2022-12-19T17:30:25.195Z,33.87
2022-12-19T17:32:53.034Z,33.88
2022-12-19T17:35:27.779Z,33.91
2022-12-19T17:37:55.561Z,33.79
2022-12-19T17:40:23.786Z,33.83
2022-12-19T17:42:50.376Z,33.77
2022-12-19T17:45:17.188Z,33.76
2022-12-19T17:47:44.098Z,33.83
2022-12-19T17:50:26.727Z,33.72
2022-12-19T17:52:53.941Z,33.47
2022-12-19T17:55:22.619Z,32.93
2022-12-19T17:57:49.284Z,32.25
2022-12-19T18:00:17.412Z,31.66
2022-12-19T18:02:45.044Z,31.20
2022-12-19T18:05:19.745Z,30.70
2022-12-19T18:07:46.516Z,30.25
2022-12-19T18:10:17.909Z,29.84
2022-12-19T18:12:44.938Z,29.53
2022-12-19T18:15:11.581Z,29.13
2022-12-19T18:17:38.457Z,28.75
2022-12-19T18:20:15.499Z,28.69
2022-12-19T18:22:42.787Z,28.60
2022-12-19T18:25:17.476Z,28.74
2022-12-19T18:27:44.356Z,29.44
2022-12-19T18:30:16.122Z,30.87
2022-12-19T18:32:47.906Z,32.24
2022-12-19T18:35:19.431Z,33.44
2022-12-19T18:37:46.226Z,33.80
2022-12-19T18:40:31.190Z,33.43
2022-12-19T18:43:00.249Z,32.95
2022-12-19T18:45:40.067Z,32.54
2022-12-19T18:48:07.922Z,32.32
2022-12-19T18:50:34.667Z,32.87
2022-12-19T18:53:01.314Z,33.63
2022-12-19T18:55:29.185Z,34.13
2022-12-19T18:57:55.908Z,33.96
2022-12-19T19:00:24.737Z,33.61
2022-12-19T19:03:01.838Z,33.21
2022-12-19T19:05:30.281Z,32.90
2022-12-19T19:07:57.956Z,32.71
2022-12-19T19:10:26.276Z,32.52
2022-12-19T19:12:52.949Z,32.37
2022-12-19T19:15:23.995Z,32.36
2022-12-19T19:17:52.492Z,32.24
2022-12-19T19:20:19.070Z,32.27
2022-12-19T19:22:45.827Z,32.34
2022-12-19T19:25:12.394Z,32.77
2022-12-19T19:27:39.971Z,33.20
2022-12-19T19:30:07.145Z,33.57
2022-12-19T19:32:33.734Z,33.80
2022-12-19T19:35:00.421Z,33.73
2022-12-19T19:37:27.522Z,33.53
2022-12-19T19:39:54.142Z,33.37
2022-12-19T19:42:20.726Z,33.27
2022-12-19T19:44:47.328Z,33.00
2022-12-19T19:47:13.909Z,32.97
2022-12-19T19:49:40.582Z,32.91
2022-12-19T19:52:07.177Z,32.80
2022-12-19T19:54:34.773Z,32.75
2022-12-19T19:57:01.344Z,32.68
2022-12-19T19:59:31.307Z,32.75
2022-12-19T20:01:58.238Z,32.11
2022-12-19T20:04:25.179Z,31.28
2022-12-19T20:06:54.184Z,30.50
2022-12-19T20:09:20.837Z,29.84
2022-12-19T20:11:47.511Z,29.29
2022-12-19T20:14:14.193Z,28.96
2022-12-19T20:16:40.938Z,28.67
2022-12-19T20:19:07.560Z,28.42
2022-12-19T20:21:34.139Z,28.53
2022-12-19T20:24:00.696Z,28.65
2022-12-19T20:26:27.416Z,28.74
2022-12-19T20:28:54.184Z,28.81
2022-12-19T20:31:21.931Z,28.81
2022-12-19T20:33:48.855Z,28.94
2022-12-19T20:36:15.496Z,28.94
2022-12-19T20:38:42.194Z,29.04
2022-12-19T20:41:08.795Z,29.04
2022-12-19T20:43:35.619Z,29.04
2022-12-19T20:46:10.381Z,29.10
2022-12-19T20:48:37.075Z,29.11
2022-12-19T20:51:06.813Z,29.04
2022-12-19T20:53:34.136Z,29.10
2022-12-19T20:56:02.687Z,29.16
2022-12-19T20:58:30.162Z,29.21
2022-12-19T21:01:21.475Z,29.26
2022-12-19T21:03:48.813Z,29.30
2022-12-19T21:06:16.553Z,29.37
2022-12-19T21:08:43.419Z,29.39
2022-12-19T21:11:10.153Z,29.37
2022-12-19T21:13:37.013Z,29.37
2022-12-19T21:16:07.133Z,29.38
2022-12-19T21:18:34.012Z,29.14
2022-12-19T21:21:00.840Z,28.97
2022-12-19T21:23:27.566Z,28.94
2022-12-19T21:25:57.863Z,28.82
2022-12-19T21:28:24.703Z,28.83
2022-12-19T21:30:59.162Z,28.89
2022-12-19T21:33:26.334Z,28.75
2022-12-19T21:35:53.241Z,28.69
2022-12-19T21:38:19.861Z,28.69
2022-12-19T21:40:46.522Z,28.68
2022-12-19T21:43:13.218Z,28.48
2022-12-19T21:45:39.850Z,28.51
2022-12-19T21:48:06.538Z,28.54
2022-12-19T21:50:33.935Z,28.43
2022-12-19T21:53:03.070Z,28.45
2022-12-19T21:55:29.622Z,28.43
2022-12-19T21:57:56.354Z,28.51
2022-12-19T22:00:23.218Z,28.40
2022-12-19T22:03:12.595Z,28.38
2022-12-19T22:05:36.498Z,28.34
2022-12-19T22:08:06.130Z,28.47
2022-12-19T22:10:32.917Z,28.55
2022-12-19T22:12:59.568Z,28.52
2022-12-19T22:15:26.173Z,28.41
2022-12-19T22:17:52.754Z,28.31
2022-12-19T22:20:19.323Z,28.37
2022-12-19T22:22:45.882Z,28.32
2022-12-19T22:25:12.840Z,28.18
2022-12-19T22:27:39.450Z,28.22
2022-12-19T22:30:11.265Z,28.38
2022-12-19T22:32:38.149Z,28.30
2022-12-19T22:35:05.229Z,28.25
2022-12-19T22:37:31.892Z,28.30
2022-12-19T22:40:00.354Z,28.32
2022-12-19T22:42:30.210Z,28.40
2022-12-19T22:44:56.800Z,28.33
2022-12-19T22:47:23.368Z,28.28
2022-12-19T22:49:53.256Z,28.22
2022-12-19T22:52:19.930Z,28.27
2022-12-19T22:54:46.611Z,28.36
2022-12-19T22:57:13.192Z,28.43
2022-12-19T22:59:40.508Z,28.36
2022-12-19T23:02:07.491Z,28.23
2022-12-19T23:04:35.009Z,28.20
2022-12-19T23:07:01.912Z,28.27
2022-12-19T23:09:28.666Z,28.19
2022-12-19T23:11:55.324Z,28.12
2022-12-19T23:14:21.986Z,28.15
2022-12-19T23:16:48.689Z,28.23
2022-12-19T23:19:15.691Z,28.29
2022-12-19T23:21:42.268Z,28.18
2022-12-19T23:24:08.817Z,28.11
2022-12-19T23:26:36.281Z,28.12
2022-12-19T23:29:06.898Z,28.17
2022-12-19T23:31:33.883Z,28.11
2022-12-19T23:34:00.595Z,27.95
2022-12-19T23:37:08.221Z,27.98
2022-12-19T23:39:16.625Z,28.12
2022-12-19T23:41:43.233Z,28.24
2022-12-19T23:44:10.152Z,28.19
2022-12-19T23:46:37.007Z,28.30
2022-12-19T23:49:03.961Z,28.33
2022-12-19T23:51:30.718Z,28.21
2022-12-19T23:53:57.454Z,28.13
2022-12-19T23:56:28.951Z,28.21
2022-12-19T23:58:55.515Z,28.07
